createdAt,value
2023-03-07T00:00:38.728Z,83.05
2023-03-07T00:03:08.676Z,82.88
2023-03-07T00:05:37.072Z,83.54
2023-03-07T00:08:06.341Z,83.20
2023-03-07T00:10:34.912Z,83.06
2023-03-07T00:13:04.081Z,83.47
2023-03-07T00:15:32.611Z,83.70
2023-03-07T00:18:01.112Z,83.31
2023-03-07T00:20:31.150Z,83.02
2023-03-07T00:22:59.578Z,83.26
2023-03-07T00:25:28.010Z,82.89
2023-03-07T00:27:56.437Z,83.60
2023-03-07T00:30:25.284Z,83.24
2023-03-07T00:32:53.677Z,83.61
2023-03-07T00:35:22.062Z,82.23
2023-03-07T00:37:51.885Z,82.63
2023-03-07T00:40:20.364Z,83.71
2023-03-07T00:42:48.712Z,84.32
2023-03-07T00:45:17.244Z,83.08
2023-03-07T00:47:45.798Z,82.99
2023-03-07T00:50:14.611Z,82.95
2023-03-07T00:52:43.057Z,83.69
2023-03-07T00:55:13.133Z,83.59
2023-03-07T00:57:42.025Z,83.46
2023-03-07T01:00:12.604Z,84.45
2023-03-07T01:02:40.927Z,84.15
2023-03-07T01:05:10.712Z,84.00
2023-03-07T01:07:39.112Z,84.30
2023-03-07T01:10:08.806Z,84.00
2023-03-07T01:12:39.101Z,84.95
2023-03-07T01:15:08.989Z,83.72
2023-03-07T01:17:38.501Z,83.54
2023-03-07T01:20:09.820Z,83.70
2023-03-07T01:22:38.206Z,83.17
2023-03-07T01:25:08.955Z,83.45
2023-03-07T01:27:38.728Z,83.86
2023-03-07T01:30:09.191Z,84.21
2023-03-07T01:32:39.707Z,84.24
2023-03-07T01:35:09.438Z,83.74
2023-03-07T01:37:38.244Z,83.96
2023-03-07T01:40:10.028Z,83.90
2023-03-07T01:42:39.817Z,83.16
2023-03-07T01:45:43.583Z,83.31
2023-03-07T01:48:12.060Z,82.58
2023-03-07T01:50:41.578Z,83.73
2023-03-07T01:53:10.797Z,84.61
2023-03-07T01:55:39.585Z,84.42
2023-03-07T01:58:16.467Z,84.37
2023-03-07T02:00:47.390Z,84.61
2023-03-07T02:03:23.448Z,85.06
2023-03-07T02:05:57.685Z,84.27
2023-03-07T02:08:29.828Z,84.20
2023-03-07T02:10:58.493Z,83.63
2023-03-07T02:13:28.323Z,83.65
2023-03-07T02:15:57.990Z,83.76
2023-03-07T02:18:29.869Z,82.97
2023-03-07T02:21:09.292Z,83.57
2023-03-07T02:23:47.044Z,83.41
2023-03-07T02:26:23.023Z,83.19
2023-03-07T02:28:53.740Z,82.50
2023-03-07T02:31:22.433Z,82.59
2023-03-07T02:33:50.853Z,82.08
2023-03-07T02:36:24.798Z,82.88
2023-03-07T02:39:07.676Z,84.09
2023-03-07T02:41:39.123Z,83.63
2023-03-07T02:44:15.742Z,83.78
2023-03-07T02:46:44.241Z,83.80
2023-03-07T02:49:12.748Z,83.50
2023-03-07T02:51:41.362Z,83.57
2023-03-07T02:54:10.354Z,83.37
2023-03-07T02:56:38.957Z,82.87
2023-03-07T02:59:07.562Z,82.49
2023-03-07T03:01:38.551Z,82.78
2023-03-07T03:04:06.880Z,82.54
2023-03-07T03:06:35.316Z,82.57
2023-03-07T03:09:04.241Z,82.07
2023-03-07T03:11:34.047Z,81.82
2023-03-07T03:14:06.682Z,82.10
2023-03-07T03:16:36.560Z,82.75
2023-03-07T03:19:05.042Z,82.08
2023-03-07T03:21:33.950Z,82.55
2023-03-07T03:24:06.894Z,82.37
2023-03-07T03:26:36.644Z,83.01
2023-03-07T03:29:06.667Z,82.69
2023-03-07T03:31:37.297Z,82.53
2023-03-07T03:34:07.313Z,82.62
2023-03-07T03:36:35.888Z,82.09
2023-03-07T03:39:11.012Z,82.42
2023-03-07T03:41:45.934Z,82.04
2023-03-07T03:44:15.134Z,82.16
2023-03-07T03:46:45.059Z,82.33
2023-03-07T03:49:14.403Z,82.49
2023-03-07T03:51:43.848Z,81.92
2023-03-07T03:54:12.341Z,82.78
2023-03-07T03:56:40.742Z,82.93
2023-03-07T03:59:09.702Z,83.08
2023-03-07T04:01:38.064Z,82.55
2023-03-07T04:04:08.639Z,82.89
2023-03-07T04:06:38.513Z,83.01
2023-03-07T04:09:06.971Z,83.17
2023-03-07T04:11:38.089Z,82.60
2023-03-07T04:14:06.596Z,82.61
2023-03-07T04:16:35.271Z,81.49
2023-03-07T04:19:03.775Z,81.19
2023-03-07T04:21:33.868Z,82.09
2023-03-07T04:24:02.504Z,81.19
2023-03-07T04:26:34.046Z,82.08
2023-03-07T04:29:02.685Z,81.33
2023-03-07T04:31:34.078Z,81.87
2023-03-07T04:34:04.884Z,81.20
2023-03-07T04:36:35.027Z,81.85
2023-03-07T04:39:03.454Z,81.47
2023-03-07T04:41:33.050Z,80.81
2023-03-07T04:44:06.613Z,80.48
2023-03-07T04:46:35.015Z,81.10
2023-03-07T04:49:03.506Z,81.00
2023-03-07T04:51:32.083Z,81.19
2023-03-07T04:54:02.571Z,81.20
2023-03-07T04:56:31.257Z,80.89
2023-03-07T04:59:02.132Z,81.46
2023-03-07T05:01:30.618Z,81.08
2023-03-07T05:03:59.929Z,81.46
2023-03-07T05:06:29.516Z,81.01
2023-03-07T05:08:58.443Z,80.63
2023-03-07T05:11:28.202Z,81.26
2023-03-07T05:13:56.987Z,81.45
2023-03-07T05:16:25.457Z,81.37
2023-03-07T05:18:53.968Z,81.29
2023-03-07T05:21:22.541Z,81.46
2023-03-07T05:23:51.491Z,82.48
2023-03-07T05:26:20.505Z,81.98
2023-03-07T05:28:50.848Z,82.52
2023-03-07T05:31:20.093Z,82.81
2023-03-07T05:33:48.559Z,81.75
2023-03-07T05:36:17.609Z,82.02
2023-03-07T05:38:46.099Z,81.68
2023-03-07T05:41:14.478Z,81.45
2023-03-07T05:43:46.039Z,80.76
2023-03-07T05:46:15.993Z,81.62
2023-03-07T05:48:44.625Z,81.17
2023-03-07T05:51:13.240Z,81.44
2023-03-07T05:53:42.210Z,81.80
2023-03-07T05:56:11.120Z,81.19
2023-03-07T05:58:39.705Z,82.64
2023-03-07T06:01:09.093Z,83.33
2023-03-07T06:03:39.084Z,82.87
2023-03-07T06:06:57.821Z,82.04
2023-03-07T06:09:26.266Z,81.94
2023-03-07T06:11:56.622Z,82.48
2023-03-07T06:14:25.780Z,82.57
2023-03-07T06:16:54.188Z,81.83
2023-03-07T06:19:24.173Z,81.62
2023-03-07T06:21:53.899Z,81.67
2023-03-07T06:24:22.320Z,82.25
2023-03-07T06:26:51.069Z,81.73
2023-03-07T06:29:22.320Z,82.00
2023-03-07T06:31:51.248Z,82.16
2023-03-07T06:34:19.947Z,81.38
2023-03-07T06:36:50.698Z,81.92
2023-03-07T06:39:21.595Z,81.78
2023-03-07T06:41:53.477Z,82.50
2023-03-07T06:44:21.984Z,82.50
2023-03-07T06:46:50.585Z,82.37
2023-03-07T06:49:22.500Z,82.94
2023-03-07T06:51:52.923Z,83.17
2023-03-07T06:54:21.871Z,83.14
2023-03-07T06:56:51.639Z,83.20
2023-03-07T06:59:23.947Z,83.39
2023-03-07T07:01:52.593Z,84.02
2023-03-07T07:04:22.557Z,83.73
2023-03-07T07:06:53.380Z,83.06
2023-03-07T07:09:21.919Z,83.65
2023-03-07T07:11:50.810Z,83.54
2023-03-07T07:14:19.539Z,83.67
2023-03-07T07:16:48.179Z,83.50
2023-03-07T07:19:16.787Z,83.05
2023-03-07T07:21:45.320Z,83.40
2023-03-07T07:24:15.814Z,83.36
2023-03-07T07:26:44.543Z,82.85
2023-03-07T07:29:13.131Z,82.41
2023-03-07T07:31:42.146Z,82.38
2023-03-07T07:34:10.763Z,82.43
2023-03-07T07:36:39.313Z,82.19
2023-03-07T07:39:10.571Z,81.80
2023-03-07T07:41:44.349Z,81.00
2023-03-07T07:44:13.409Z,80.11
2023-03-07T07:46:54.306Z,79.99
2023-03-07T07:49:24.753Z,80.11
2023-03-07T07:51:54.984Z,80.52
2023-03-07T07:54:25.618Z,80.03
2023-03-07T07:56:57.537Z,80.13
2023-03-07T07:59:31.760Z,79.98
2023-03-07T08:02:00.288Z,78.96
2023-03-07T08:04:29.322Z,79.18
2023-03-07T08:06:57.793Z,79.01
2023-03-07T08:09:27.278Z,78.85
2023-03-07T08:11:57.012Z,78.80
2023-03-07T08:14:25.596Z,79.10
2023-03-07T08:16:54.501Z,79.42
2023-03-07T08:19:22.850Z,78.59
2023-03-07T08:21:51.415Z,77.75
2023-03-07T08:24:21.798Z,78.52
2023-03-07T08:26:51.696Z,78.84
2023-03-07T08:29:21.970Z,78.77
2023-03-07T08:31:51.925Z,78.82
2023-03-07T08:34:20.372Z,79.33
2023-03-07T08:36:49.058Z,78.70
2023-03-07T08:39:17.616Z,78.87
2023-03-07T08:41:46.072Z,78.93
2023-03-07T08:44:14.631Z,77.39
2023-03-07T08:46:44.417Z,77.33
2023-03-07T08:49:13.334Z,76.31
2023-03-07T08:51:41.992Z,75.79
2023-03-07T08:54:10.531Z,75.83
2023-03-07T08:56:39.221Z,75.70
2023-03-07T08:59:07.727Z,76.06
2023-03-07T09:01:36.171Z,76.11
2023-03-07T09:04:06.345Z,75.95
2023-03-07T09:06:34.945Z,76.72
2023-03-07T09:09:03.817Z,76.63
2023-03-07T09:11:32.223Z,76.53
2023-03-07T09:14:00.590Z,76.55
2023-03-07T09:16:28.976Z,76.60
2023-03-07T09:18:57.540Z,77.05
2023-03-07T09:21:27.271Z,77.38
2023-03-07T09:23:55.728Z,77.30
2023-03-07T09:26:24.176Z,77.32
2023-03-07T09:28:52.664Z,76.86
2023-03-07T09:31:21.349Z,77.10
2023-03-07T09:33:49.800Z,75.97
2023-03-07T09:36:19.677Z,76.22
2023-03-07T09:38:49.615Z,77.09
2023-03-07T09:41:49.905Z,76.70
2023-03-07T09:44:34.268Z,76.58
2023-03-07T09:48:10.525Z,76.16
2023-03-07T09:50:49.373Z,75.77
2023-03-07T09:53:25.623Z,77.16
2023-03-07T09:56:09.683Z,77.80
2023-03-07T09:58:45.406Z,77.83
2023-03-07T10:01:17.067Z,77.04
2023-03-07T10:03:55.556Z,77.72
2023-03-07T10:06:31.505Z,78.05
2023-03-07T10:09:01.769Z,78.37
2023-03-07T10:11:54.424Z,76.98
2023-03-07T10:14:48.824Z,78.67
2023-03-07T10:17:30.968Z,77.62
2023-03-07T10:20:09.141Z,77.29
2023-03-07T10:22:46.370Z,76.90
2023-03-07T10:25:27.432Z,77.25
2023-03-07T10:28:10.212Z,76.89
2023-03-07T10:30:39.048Z,76.26
2023-03-07T10:33:17.264Z,75.39
2023-03-07T10:35:51.253Z,76.09
2023-03-07T10:38:29.680Z,74.93
2023-03-07T10:41:03.462Z,75.40
2023-03-07T10:43:35.456Z,74.07
2023-03-07T10:46:24.589Z,72.90
2023-03-07T10:48:56.445Z,73.73
2023-03-07T10:51:51.522Z,73.50
2023-03-07T10:54:23.510Z,74.50
2023-03-07T10:57:09.709Z,74.60
2023-03-07T10:59:43.581Z,74.22
2023-03-07T11:02:35.969Z,74.11
2023-03-07T11:05:19.621Z,75.81
2023-03-07T11:07:48.079Z,76.32
2023-03-07T11:10:37.269Z,76.11
2023-03-07T11:13:15.209Z,76.21
2023-03-07T11:15:45.567Z,76.46
2023-03-07T11:18:29.982Z,76.10
2023-03-07T11:21:00.277Z,76.06
2023-03-07T11:23:31.608Z,76.14
2023-03-07T11:26:17.263Z,76.30
2023-03-07T11:28:45.838Z,76.69
2023-03-07T11:31:28.577Z,76.76
2023-03-07T11:34:06.632Z,76.13
2023-03-07T11:36:37.838Z,76.41
2023-03-07T11:39:17.724Z,76.11
2023-03-07T11:41:49.271Z,76.24
2023-03-07T11:44:33.694Z,75.03
2023-03-07T11:47:34.682Z,74.53
2023-03-07T11:50:17.773Z,74.82
2023-03-07T11:53:31.291Z,75.46
2023-03-07T11:56:24.948Z,75.38
2023-03-07T11:59:40.542Z,75.81
2023-03-07T12:02:38.563Z,75.48
2023-03-07T12:05:37.689Z,76.60
2023-03-07T12:08:37.201Z,77.29
2023-03-07T12:11:23.502Z,76.55
2023-03-07T12:14:01.918Z,75.04
2023-03-07T12:16:43.364Z,76.31
2023-03-07T12:19:44.236Z,78.28
2023-03-07T12:22:28.990Z,78.01
2023-03-07T12:25:23.507Z,77.62
2023-03-07T12:28:12.095Z,77.03
2023-03-07T12:30:56.034Z,75.63
2023-03-07T12:33:38.688Z,76.34
2023-03-07T12:36:18.507Z,75.67
2023-03-07T12:38:53.990Z,75.88
2023-03-07T12:41:40.348Z,74.35
2023-03-07T12:44:17.476Z,74.71
2023-03-07T12:46:52.411Z,74.63
2023-03-07T12:49:35.695Z,76.12
2023-03-07T12:52:17.631Z,74.58
2023-03-07T12:54:54.607Z,74.89
2023-03-07T12:57:29.815Z,75.50
2023-03-07T13:00:05.733Z,74.97
2023-03-07T13:02:43.015Z,74.22
2023-03-07T13:05:21.402Z,73.99
2023-03-07T13:07:52.207Z,74.56
2023-03-07T13:10:23.413Z,74.75
2023-03-07T13:12:53.065Z,74.02
2023-03-07T13:16:05.121Z,75.40
2023-03-07T13:18:34.391Z,76.16
2023-03-07T13:21:30.851Z,74.55
2023-03-07T13:24:36.745Z,74.22
2023-03-07T13:27:15.300Z,73.57
2023-03-07T13:30:18.210Z,72.86
2023-03-07T13:32:58.734Z,72.48
2023-03-07T13:35:57.966Z,72.94
2023-03-07T13:38:35.850Z,73.47
2023-03-07T13:41:06.774Z,74.99
2023-03-07T13:44:02.080Z,75.67
2023-03-07T13:46:48.778Z,76.21
2023-03-07T13:49:45.515Z,77.13
2023-03-07T13:52:40.201Z,77.73
2023-03-07T13:55:39.577Z,77.71
2023-03-07T13:58:29.824Z,76.90
2023-03-07T14:01:02.751Z,77.96
2023-03-07T14:03:36.916Z,77.97
2023-03-07T14:06:12.473Z,78.15
2023-03-07T14:08:41.525Z,78.81
2023-03-07T14:11:23.165Z,79.79
2023-03-07T14:14:25.090Z,79.29
2023-03-07T14:17:15.147Z,78.49
2023-03-07T14:20:09.165Z,78.48
2023-03-07T14:22:54.107Z,79.38
2023-03-07T14:25:26.056Z,78.41
2023-03-07T14:27:58.534Z,79.69
2023-03-07T14:30:32.002Z,80.53
2023-03-07T14:33:02.182Z,80.35
2023-03-07T14:35:45.369Z,79.57
2023-03-07T14:38:21.305Z,80.03
2023-03-07T14:41:36.015Z,79.96
2023-03-07T14:44:35.674Z,80.11
2023-03-07T14:47:20.893Z,80.06
2023-03-07T14:50:01.576Z,80.53
2023-03-07T14:52:31.903Z,80.08
2023-03-07T14:55:03.956Z,80.26
2023-03-07T14:57:35.984Z,80.49
2023-03-07T15:00:17.170Z,81.50
2023-03-07T15:03:04.317Z,81.40
2023-03-07T15:05:37.078Z,81.37
2023-03-07T15:08:18.849Z,80.42
2023-03-07T15:10:51.868Z,80.70
2023-03-07T15:13:29.935Z,80.56
2023-03-07T15:16:04.098Z,80.85
2023-03-07T15:18:39.199Z,80.29
2023-03-07T15:21:09.441Z,80.15
2023-03-07T15:23:37.871Z,79.23
2023-03-07T15:26:10.894Z,80.16
2023-03-07T15:28:41.671Z,80.68
2023-03-07T15:31:11.361Z,81.25
2023-03-07T15:33:41.475Z,81.50
2023-03-07T15:36:28.323Z,81.25
2023-03-07T15:39:33.159Z,81.13
2023-03-07T15:42:05.161Z,81.33
2023-03-07T15:44:34.318Z,80.68
2023-03-07T15:47:15.134Z,80.02
2023-03-07T15:49:47.327Z,80.19
2023-03-07T15:52:33.544Z,79.22
2023-03-07T15:55:05.779Z,79.25
2023-03-07T15:57:39.188Z,79.55
2023-03-07T16:00:17.484Z,79.98
2023-03-07T16:02:48.289Z,80.35
2023-03-07T16:05:43.724Z,79.86
2023-03-07T16:08:15.650Z,79.33
2023-03-07T16:10:52.193Z,79.53
2023-03-07T16:13:24.341Z,80.78
2023-03-07T16:16:06.105Z,79.68
2023-03-07T16:18:35.498Z,80.11
2023-03-07T16:21:06.355Z,79.68
2023-03-07T16:23:35.359Z,79.64
2023-03-07T16:26:06.110Z,80.13
2023-03-07T16:28:37.878Z,79.47
2023-03-07T16:31:13.208Z,79.14
2023-03-07T16:33:41.714Z,79.16
2023-03-07T16:36:13.979Z,79.43
2023-03-07T16:38:43.155Z,79.66
2023-03-07T16:41:19.314Z,79.39
2023-03-07T16:43:52.843Z,78.80
2023-03-07T16:46:22.520Z,78.63
2023-03-07T16:48:51.126Z,78.44
2023-03-07T16:51:23.580Z,78.54
2023-03-07T16:53:52.570Z,78.15
2023-03-07T16:56:26.663Z,78.69
2023-03-07T16:58:55.441Z,78.75
2023-03-07T17:01:24.022Z,78.24
2023-03-07T17:03:52.670Z,78.60
2023-03-07T17:06:33.597Z,78.19
2023-03-07T17:09:09.598Z,77.68
2023-03-07T17:11:39.710Z,77.98
2023-03-07T17:14:12.531Z,77.47
2023-03-07T17:16:45.136Z,77.14
2023-03-07T17:19:26.076Z,77.81
2023-03-07T17:21:56.332Z,77.02
2023-03-07T17:24:25.224Z,77.75
2023-03-07T17:26:54.799Z,77.10
2023-03-07T17:29:30.073Z,78.08
2023-03-07T17:31:58.669Z,78.33
2023-03-07T17:34:30.629Z,77.69
2023-03-07T17:37:01.415Z,78.29
2023-03-07T17:39:34.376Z,78.52
2023-03-07T17:42:03.575Z,78.23
2023-03-07T17:44:32.834Z,78.29
2023-03-07T17:47:01.631Z,78.98
2023-03-07T17:49:35.555Z,78.46
2023-03-07T17:52:08.173Z,79.01
2023-03-07T17:54:36.657Z,78.51
2023-03-07T17:57:05.740Z,78.67
2023-03-07T17:59:34.731Z,77.98
2023-03-07T18:02:03.304Z,78.42
2023-03-07T18:04:31.857Z,78.36
2023-03-07T18:07:00.856Z,78.54
2023-03-07T18:09:30.612Z,78.85
2023-03-07T18:11:59.053Z,78.30
2023-03-07T18:14:28.306Z,77.70
2023-03-07T18:16:57.810Z,77.56
2023-03-07T18:19:27.389Z,78.81
2023-03-07T18:21:56.442Z,78.25
2023-03-07T18:24:29.979Z,78.31
2023-03-07T18:27:00.549Z,79.38
2023-03-07T18:29:30.757Z,79.63
2023-03-07T18:31:59.262Z,79.83
2023-03-07T18:34:27.950Z,80.89
2023-03-07T18:36:56.629Z,81.71
2023-03-07T18:39:27.310Z,81.82
2023-03-07T18:41:55.758Z,81.33
2023-03-07T18:44:26.047Z,81.00
2023-03-07T18:46:54.993Z,79.68
2023-03-07T18:49:23.381Z,79.19
2023-03-07T18:51:51.752Z,78.87
2023-03-07T18:54:20.121Z,78.44
2023-03-07T18:56:48.713Z,77.42
2023-03-07T18:59:18.426Z,77.71
2023-03-07T19:01:50.183Z,77.78
2023-03-07T19:04:19.588Z,77.82
2023-03-07T19:06:48.611Z,78.16
2023-03-07T19:09:19.230Z,78.05
2023-03-07T19:11:48.456Z,78.53
2023-03-07T19:14:16.893Z,78.20
2023-03-07T19:16:45.674Z,77.70
2023-03-07T19:19:15.611Z,77.97
2023-03-07T19:21:44.105Z,77.52
2023-03-07T19:24:13.434Z,77.13
2023-03-07T19:26:43.308Z,77.93
2023-03-07T19:29:13.120Z,77.69
2023-03-07T19:31:43.769Z,78.68
2023-03-07T19:34:12.739Z,79.04
2023-03-07T19:36:43.157Z,78.81
2023-03-07T19:39:15.216Z,79.00
2023-03-07T19:41:47.811Z,79.53
2023-03-07T19:44:17.223Z,78.58
2023-03-07T19:46:47.287Z,78.26
2023-03-07T19:49:17.213Z,77.88
2023-03-07T19:51:47.062Z,78.14
2023-03-07T19:54:16.460Z,78.48
2023-03-07T19:56:45.654Z,78.56
2023-03-07T19:59:14.817Z,78.03
2023-03-07T20:01:43.703Z,77.99
2023-03-07T20:04:13.362Z,77.65
2023-03-07T20:06:43.302Z,77.33
2023-03-07T20:09:14.250Z,77.69
2023-03-07T20:11:43.866Z,77.91
2023-03-07T20:14:13.364Z,78.28
2023-03-07T20:16:42.027Z,78.11
2023-03-07T20:19:11.750Z,78.41
2023-03-07T20:21:40.381Z,77.93
2023-03-07T20:24:09.665Z,77.56
2023-03-07T20:26:40.765Z,77.84
2023-03-07T20:29:11.643Z,77.63
2023-03-07T20:31:41.113Z,78.07
2023-03-07T20:34:09.914Z,77.54
2023-03-07T20:36:39.542Z,77.36
2023-03-07T20:39:14.356Z,77.55
2023-03-07T20:41:45.268Z,77.46
2023-03-07T20:44:16.202Z,77.11
2023-03-07T20:46:44.766Z,77.21
2023-03-07T20:49:14.545Z,78.16
2023-03-07T20:51:44.167Z,77.89
2023-03-07T20:54:15.498Z,77.57
2023-03-07T20:56:47.364Z,77.48
2023-03-07T20:59:17.676Z,77.86
2023-03-07T21:01:46.470Z,77.94
2023-03-07T21:04:17.792Z,77.28
2023-03-07T21:06:47.912Z,78.00
2023-03-07T21:09:18.849Z,76.93
2023-03-07T21:11:50.119Z,77.63
2023-03-07T21:14:20.834Z,76.99
2023-03-07T21:16:49.468Z,77.71
2023-03-07T21:19:17.832Z,77.42
2023-03-07T21:21:46.269Z,76.87
2023-03-07T21:24:15.550Z,77.07
2023-03-07T21:26:43.946Z,77.25
2023-03-07T21:29:14.181Z,76.78
2023-03-07T21:31:42.694Z,76.95
2023-03-07T21:34:14.707Z,77.16
2023-03-07T21:36:43.250Z,77.74
2023-03-07T21:39:12.717Z,77.31
2023-03-07T21:41:41.367Z,77.42
2023-03-07T21:44:10.641Z,77.32
2023-03-07T21:46:40.312Z,77.20
2023-03-07T21:49:08.973Z,77.77
2023-03-07T21:51:37.351Z,78.09
2023-03-07T21:54:06.188Z,77.26
2023-03-07T21:56:34.647Z,77.50
2023-03-07T21:59:03.038Z,78.20
2023-03-07T22:01:31.471Z,78.00
2023-03-07T22:04:01.311Z,78.19
2023-03-07T22:06:30.314Z,77.57
2023-03-07T22:09:00.551Z,77.46
2023-03-07T22:11:29.181Z,78.10
2023-03-07T22:13:57.440Z,77.59
2023-03-07T22:16:25.790Z,78.01
2023-03-07T22:18:56.115Z,78.98
2023-03-07T22:21:26.908Z,79.43
2023-03-07T22:23:57.898Z,79.85
2023-03-07T22:26:26.837Z,78.62
2023-03-07T22:28:55.905Z,78.85
2023-03-07T22:31:25.100Z,78.74
2023-03-07T22:33:53.695Z,79.23
2023-03-07T22:36:24.751Z,78.44
2023-03-07T22:38:57.108Z,78.61
2023-03-07T22:41:29.048Z,78.54
2023-03-07T22:43:57.371Z,78.31
2023-03-07T22:46:26.225Z,79.35
2023-03-07T22:48:55.044Z,79.62
2023-03-07T22:51:25.518Z,78.99
2023-03-07T22:53:55.434Z,78.47
2023-03-07T22:56:26.362Z,78.44
2023-03-07T22:58:55.121Z,78.34
2023-03-07T23:01:26.559Z,79.04
2023-03-07T23:03:57.024Z,78.45
2023-03-07T23:06:28.697Z,78.21
2023-03-07T23:08:59.681Z,78.38
2023-03-07T23:11:30.642Z,77.67
2023-03-07T23:13:59.660Z,78.40
2023-03-07T23:16:30.797Z,77.85
2023-03-07T23:19:00.711Z,77.84
2023-03-07T23:21:32.202Z,77.67
2023-03-07T23:24:03.122Z,77.90
2023-03-07T23:26:34.587Z,77.52
2023-03-07T23:29:03.402Z,78.32
2023-03-07T23:31:34.050Z,77.68
2023-03-07T23:34:05.781Z,77.97
2023-03-07T23:36:35.068Z,78.46
2023-03-07T23:39:05.384Z,78.51
2023-03-07T23:41:33.944Z,77.97
2023-03-07T23:44:03.532Z,77.56
2023-03-07T23:46:33.310Z,78.45
2023-03-07T23:49:02.774Z,78.28
2023-03-07T23:51:31.792Z,78.30
2023-03-07T23:54:00.118Z,79.39
2023-03-07T23:56:29.896Z,79.17
2023-03-07T23:58:58.262Z,79.06
